sensor_id;sensor_type;location;lat;lon;timestamp;pressure;altitude;pressure_sealevel;temperature;humidity
63405;BME280;49541;57.840;12.306;2024-01-11T00:01:25;102122.72;;;-0.16;100.00
63405;BME280;49541;57.840;12.306;2024-01-11T00:06:25;102086.50;;;0.07;100.00
63405;BME280;49541;57.840;12.306;2024-01-11T00:11:26;102067.09;;;0.17;100.00
63405;BME280;49541;57.840;12.306;2024-01-11T00:16:26;102083.38;;;-0.63;100.00
63405;BME280;49541;57.840;12.306;2024-01-11T00:21:27;102082.13;;;-0.95;100.00
63405;BME280;49541;57.840;12.306;2024-01-11T00:26:27;102072.19;;;-1.29;100.00
63405;BME280;49541;57.840;12.306;2024-01-11T00:31:27;102061.84;;;-0.79;100.00
63405;BME280;49541;57.840;12.306;2024-01-11T00:36:27;102037.41;;;-0.28;100.00
63405;BME280;49541;57.840;12.306;2024-01-11T00:41:28;102043.25;;;-0.14;100.00
63405;BME280;49541;57.840;12.306;2024-01-11T00:46:29;102040.56;;;-0.57;100.00
63405;BME280;49541;57.840;12.306;2024-01-11T00:51:30;102027.75;;;-0.25;100.00
63405;BME280;49541;57.840;12.306;2024-01-11T00:56:30;102040.94;;;-0.31;100.00
63405;BME280;49541;57.840;12.306;2024-01-11T01:01:30;102041.97;;;-0.91;100.00
63405;BME280;49541;57.840;12.306;2024-01-11T01:06:30;102047.53;;;-1.12;100.00
63405;BME280;49541;57.840;12.306;2024-01-11T01:11:31;102042.13;;;-1.00;100.00
63405;BME280;49541;57.840;12.306;2024-01-11T01:16:31;102044.22;;;-1.24;100.00
63405;BME280;49541;57.840;12.306;2024-01-11T01:21:31;102043.50;;;-1.33;100.00
63405;BME280;49541;57.840;12.306;2024-01-11T01:26:31;102047.84;;;-1.34;100.00
63405;BME280;49541;57.840;12.306;2024-01-11T01:31:32;102034.47;;;-1.76;100.00
63405;BME280;49541;57.840;12.306;2024-01-11T01:36:37;102055.38;;;-1.76;100.00
63405;BME280;49541;57.840;12.306;2024-01-11T01:41:37;102051.91;;;-1.78;100.00
63405;BME280;49541;57.840;12.306;2024-01-11T01:46:37;102060.78;;;-1.91;100.00
63405;BME280;49541;57.840;12.306;2024-01-11T01:51:38;102044.06;;;-1.76;100.00
63405;BME280;49541;57.840;12.306;2024-01-11T01:56:40;102037.28;;;-1.94;100.00
63405;BME280;49541;57.840;12.306;2024-01-11T02:01:40;102024.59;;;-1.55;100.00
63405;BME280;49541;57.840;12.306;2024-01-11T02:06:40;102026.66;;;-1.77;100.00
63405;BME280;49541;57.840;12.306;2024-01-11T02:11:41;102032.06;;;-1.93;100.00
63405;BME280;49541;57.840;12.306;2024-01-11T02:16:42;102037.47;;;-2.08;100.00
63405;BME280;49541;57.840;12.306;2024-01-11T02:21:42;102027.22;;;-2.28;100.00
63405;BME280;49541;57.840;12.306;2024-01-11T02:26:58;102020.75;;;-2.75;100.00
63405;BME280;49541;57.840;12.306;2024-01-11T02:32:02;102025.34;;;-2.15;100.00
63405;BME280;49541;57.840;12.306;2024-01-11T02:37:02;102040.34;;;-2.34;100.00
63405;BME280;49541;57.840;12.306;2024-01-11T02:42:03;102035.91;;;-2.26;100.00
63405;BME280;49541;57.840;12.306;2024-01-11T02:47:03;102023.00;;;-2.40;100.00
63405;BME280;49541;57.840;12.306;2024-01-11T02:52:04;102011.66;;;-2.39;100.00
63405;BME280;49541;57.840;12.306;2024-01-11T02:57:04;102022.09;;;-2.34;100.00
63405;BME280;49541;57.840;12.306;2024-01-11T03:02:04;102037.84;;;-2.47;100.00
63405;BME280;49541;57.840;12.306;2024-01-11T03:07:04;102042.22;;;-2.49;100.00
63405;BME280;49541;57.840;12.306;2024-01-11T03:12:05;102033.22;;;-2.20;100.00
63405;BME280;49541;57.840;12.306;2024-01-11T03:17:06;102026.47;;;-2.36;100.00
63405;BME280;49541;57.840;12.306;2024-01-11T03:22:07;102019.94;;;-1.98;100.00
63405;BME280;49541;57.840;12.306;2024-01-11T03:27:07;102028.69;;;-1.36;100.00
63405;BME280;49541;57.840;12.306;2024-01-11T03:32:09;102021.34;;;-2.47;100.00
63405;BME280;49541;57.840;12.306;2024-01-11T03:37:12;102027.56;;;-2.62;100.00
63405;BME280;49541;57.840;12.306;2024-01-11T03:42:12;102012.38;;;-2.21;100.00
63405;BME280;49541;57.840;12.306;2024-01-11T03:47:13;102001.28;;;-2.42;100.00
63405;BME280;49541;57.840;12.306;2024-01-11T03:52:14;101997.66;;;-2.29;100.00
63405;BME280;49541;57.840;12.306;2024-01-11T03:57:15;101996.69;;;-2.20;100.00
63405;BME280;49541;57.840;12.306;2024-01-11T04:02:15;102000.00;;;-2.91;100.00
63405;BME280;49541;57.840;12.306;2024-01-11T04:07:15;101995.84;;;-3.12;100.00
63405;BME280;49541;57.840;12.306;2024-01-11T04:12:17;101996.84;;;-3.31;100.00
63405;BME280;49541;57.840;12.306;2024-01-11T04:17:17;102002.19;;;-2.44;100.00
63405;BME280;49541;57.840;12.306;2024-01-11T04:22:17;102000.19;;;-2.19;100.00
63405;BME280;49541;57.840;12.306;2024-01-11T04:27:17;101999.03;;;-2.80;100.00
63405;BME280;49541;57.840;12.306;2024-01-11T04:32:17;101998.28;;;-2.95;100.00
63405;BME280;49541;57.840;12.306;2024-01-11T04:37:18;101995.03;;;-3.20;100.00
63405;BME280;49541;57.840;12.306;2024-01-11T04:42:18;101994.22;;;-3.30;100.00
63405;BME280;49541;57.840;12.306;2024-01-11T04:47:20;101988.03;;;-3.12;100.00
63405;BME280;49541;57.840;12.306;2024-01-11T04:52:20;101980.38;;;-3.38;100.00
63405;BME280;49541;57.840;12.306;2024-01-11T04:57:21;101979.47;;;-3.29;100.00
63405;BME280;49541;57.840;12.306;2024-01-11T05:02:21;101987.47;;;-3.64;100.00
63405;BME280;49541;57.840;12.306;2024-01-11T05:07:21;101988.25;;;-3.48;100.00
63405;BME280;49541;57.840;12.306;2024-01-11T05:12:21;101986.44;;;-3.36;100.00
63405;BME280;49541;57.840;12.306;2024-01-11T05:17:22;101990.91;;;-3.56;100.00
63405;BME280;49541;57.840;12.306;2024-01-11T05:22:22;101986.53;;;-3.51;100.00
63405;BME280;49541;57.840;12.306;2024-01-11T05:27:22;101997.63;;;-3.20;100.00
63405;BME280;49541;57.840;12.306;2024-01-11T05:32:23;102010.31;;;-4.37;100.00
63405;BME280;49541;57.840;12.306;2024-01-11T05:37:23;101998.88;;;-3.85;100.00
63405;BME280;49541;57.840;12.306;2024-01-11T05:42:23;101998.06;;;-3.98;100.00
63405;BME280;49541;57.840;12.306;2024-01-11T05:47:24;101990.25;;;-3.97;100.00
63405;BME280;49541;57.840;12.306;2024-01-11T05:52:24;101987.09;;;-3.06;100.00
63405;BME280;49541;57.840;12.306;2024-01-11T05:57:25;101989.94;;;-3.38;100.00
63405;BME280;49541;57.840;12.306;2024-01-11T06:02:28;101998.88;;;-3.82;100.00
63405;BME280;49541;57.840;12.306;2024-01-11T06:07:29;102006.81;;;-4.24;100.00
63405;BME280;49541;57.840;12.306;2024-01-11T06:12:29;102005.09;;;-4.25;100.00
63405;BME280;49541;57.840;12.306;2024-01-11T06:17:30;102000.72;;;-4.12;100.00
63405;BME280;49541;57.840;12.306;2024-01-11T06:22:30;102003.38;;;-4.35;100.00
63405;BME280;49541;57.840;12.306;2024-01-11T06:27:30;102009.44;;;-4.28;100.00
63405;BME280;49541;57.840;12.306;2024-01-11T06:32:30;102012.88;;;-4.19;100.00
63405;BME280;49541;57.840;12.306;2024-01-11T06:37:31;102016.41;;;-4.46;100.00
63405;BME280;49541;57.840;12.306;2024-01-11T06:42:31;102006.84;;;-4.27;100.00
63405;BME280;49541;57.840;12.306;2024-01-11T06:47:32;102013.78;;;-4.41;100.00
63405;BME280;49541;57.840;12.306;2024-01-11T06:52:32;102019.00;;;-4.35;100.00
63405;BME280;49541;57.840;12.306;2024-01-11T06:57:32;102021.25;;;-3.46;100.00
63405;BME280;49541;57.840;12.306;2024-01-11T07:02:33;102027.38;;;-3.59;100.00
63405;BME280;49541;57.840;12.306;2024-01-11T07:07:33;102025.00;;;-4.10;100.00
63405;BME280;49541;57.840;12.306;2024-01-11T07:12:34;102004.78;;;-3.54;100.00
63405;BME280;49541;57.840;12.306;2024-01-11T07:17:34;102017.16;;;-3.98;100.00
63405;BME280;49541;57.840;12.306;2024-01-11T07:22:35;102025.97;;;-4.57;100.00
63405;BME280;49541;57.840;12.306;2024-01-11T07:27:36;102032.03;;;-4.66;100.00
63405;BME280;49541;57.840;12.306;2024-01-11T07:32:36;102027.59;;;-4.12;100.00
63405;BME280;49541;57.840;12.306;2024-01-11T07:37:36;102033.69;;;-4.14;100.00
63405;BME280;49541;57.840;12.306;2024-01-11T07:42:37;102037.16;;;-4.26;100.00
63405;BME280;49541;57.840;12.306;2024-01-11T07:47:38;102032.03;;;-4.74;100.00
63405;BME280;49541;57.840;12.306;2024-01-11T07:52:39;102048.47;;;-5.33;100.00
63405;BME280;49541;57.840;12.306;2024-01-11T07:57:42;102056.28;;;-4.71;100.00
63405;BME280;49541;57.840;12.306;2024-01-11T08:02:42;102064.97;;;-4.69;100.00
63405;BME280;49541;57.840;12.306;2024-01-11T08:07:42;102070.19;;;-4.71;100.00
63405;BME280;49541;57.840;12.306;2024-01-11T08:12:43;102057.16;;;-4.74;100.00
63405;BME280;49541;57.840;12.306;2024-01-11T08:17:46;102062.34;;;-4.86;100.00
63405;BME280;49541;57.840;12.306;2024-01-11T08:22:46;102060.63;;;-4.95;100.00
63405;BME280;49541;57.840;12.306;2024-01-11T08:27:47;102063.13;;;-4.03;100.00
63405;BME280;49541;57.840;12.306;2024-01-11T08:32:47;102056.28;;;-4.42;100.00
63405;BME280;49541;57.840;12.306;2024-01-11T08:37:47;102067.50;;;-4.06;100.00
63405;BME280;49541;57.840;12.306;2024-01-11T08:42:48;102077.88;;;-4.00;100.00
63405;BME280;49541;57.840;12.306;2024-01-11T08:47:48;102069.03;;;-3.50;100.00
63405;BME280;49541;57.840;12.306;2024-01-11T08:52:48;102065.16;;;-2.88;100.00
63405;BME280;49541;57.840;12.306;2024-01-11T08:57:48;102082.88;;;-3.45;100.00
63405;BME280;49541;57.840;12.306;2024-01-11T09:02:49;102085.69;;;-3.97;100.00
63405;BME280;49541;57.840;12.306;2024-01-11T09:07:49;102081.06;;;-3.34;100.00
63405;BME280;49541;57.840;12.306;2024-01-11T09:12:49;102096.09;;;-3.99;100.00
63405;BME280;49541;57.840;12.306;2024-01-11T09:17:49;102092.63;;;-3.95;100.00
63405;BME280;49541;57.840;12.306;2024-01-11T09:22:51;102089.75;;;-3.32;100.00
63405;BME280;49541;57.840;12.306;2024-01-11T09:27:52;102099.59;;;-4.30;100.00
63405;BME280;49541;57.840;12.306;2024-01-11T09:32:52;102109.16;;;-4.31;100.00
63405;BME280;49541;57.840;12.306;2024-01-11T09:37:52;102107.19;;;-3.49;100.00
63405;BME280;49541;57.840;12.306;2024-01-11T09:42:52;102089.69;;;-3.19;100.00
63405;BME280;49541;57.840;12.306;2024-01-11T09:47:53;102111.63;;;-3.73;100.00
63405;BME280;49541;57.840;12.306;2024-01-11T09:52:54;102134.16;;;-3.62;100.00
63405;BME280;49541;57.840;12.306;2024-01-11T09:57:56;102136.41;;;-2.89;100.00
63405;BME280;49541;57.840;12.306;2024-01-11T10:02:57;102129.47;;;-2.93;100.00
63405;BME280;49541;57.840;12.306;2024-01-11T10:07:57;102127.69;;;-2.84;100.00
63405;BME280;49541;57.840;12.306;2024-01-11T10:12:58;102126.47;;;-2.34;100.00
63405;BME280;49541;57.840;12.306;2024-01-11T10:17:58;102124.16;;;-2.74;100.00
63405;BME280;49541;57.840;12.306;2024-01-11T10:22:58;102124.81;;;-2.46;100.00
63405;BME280;49541;57.840;12.306;2024-01-11T10:27:59;102119.31;;;-1.35;100.00
63405;BME280;49541;57.840;12.306;2024-01-11T10:32:59;102110.13;;;-1.01;100.00
63405;BME280;49541;57.840;12.306;2024-01-11T10:37:59;102125.38;;;-1.36;100.00
63405;BME280;49541;57.840;12.306;2024-01-11T10:43:01;102134.16;;;-0.76;100.00
63405;BME280;49541;57.840;12.306;2024-01-11T10:48:02;102124.53;;;-0.20;100.00
63405;BME280;49541;57.840;12.306;2024-01-11T10:58:08;102132.31;;;0.33;100.00
63405;BME280;49541;57.840;12.306;2024-01-11T11:03:10;102132.16;;;0.82;100.00
63405;BME280;49541;57.840;12.306;2024-01-11T11:08:11;102130.50;;;1.17;100.00
63405;BME280;49541;57.840;12.306;2024-01-11T11:13:12;102135.50;;;0.89;100.00
63405;BME280;49541;57.840;12.306;2024-01-11T11:18:14;102132.06;;;1.25;100.00
63405;BME280;49541;57.840;12.306;2024-01-11T11:23:15;102132.09;;;1.95;100.00
63405;BME280;49541;57.840;12.306;2024-01-11T11:28:17;102136.97;;;2.09;100.00
63405;BME280;49541;57.840;12.306;2024-01-11T11:33:18;102151.53;;;2.53;100.00
63405;BME280;49541;57.840;12.306;2024-01-11T11:38:20;102149.94;;;3.07;100.00
63405;BME280;49541;57.840;12.306;2024-01-11T11:43:20;102140.56;;;3.26;100.00
63405;BME280;49541;57.840;12.306;2024-01-11T11:53:34;102135.84;;;5.32;100.00
63405;BME280;49541;57.840;12.306;2024-01-11T11:58:35;102126.44;;;5.90;100.00
63405;BME280;49541;57.840;12.306;2024-01-11T12:03:40;102125.38;;;6.35;100.00
63405;BME280;49541;57.840;12.306;2024-01-11T12:08:41;102140.09;;;6.41;100.00
63405;BME280;49541;57.840;12.306;2024-01-11T12:13:42;102118.97;;;7.16;100.00
63405;BME280;49541;57.840;12.306;2024-01-11T12:18:44;102134.06;;;6.57;100.00
63405;BME280;49541;57.840;12.306;2024-01-11T12:23:44;102127.75;;;6.60;100.00
63405;BME280;49541;57.840;12.306;2024-01-11T12:28:44;102139.72;;;7.26;100.00
63405;BME280;49541;57.840;12.306;2024-01-11T12:33:45;102134.13;;;7.32;100.00
63405;BME280;49541;57.840;12.306;2024-01-11T12:38:48;102129.59;;;7.34;100.00
63405;BME280;49541;57.840;12.306;2024-01-11T12:43:48;102124.72;;;7.61;100.00
63405;BME280;49541;57.840;12.306;2024-01-11T12:48:50;102130.13;;;8.28;100.00
63405;BME280;49541;57.840;12.306;2024-01-11T12:53:51;102133.44;;;7.63;100.00
63405;BME280;49541;57.840;12.306;2024-01-11T12:59:04;102127.97;;;7.31;100.00
63405;BME280;49541;57.840;12.306;2024-01-11T13:04:04;102137.94;;;7.07;100.00
63405;BME280;49541;57.840;12.306;2024-01-11T13:09:05;102118.81;;;7.01;100.00
63405;BME280;49541;57.840;12.306;2024-01-11T13:14:09;102124.56;;;7.10;100.00
63405;BME280;49541;57.840;12.306;2024-01-11T13:19:18;102127.66;;;6.03;100.00
63405;BME280;49541;57.840;12.306;2024-01-11T13:24:18;102143.38;;;5.42;100.00
63405;BME280;49541;57.840;12.306;2024-01-11T13:29:19;102134.44;;;5.02;100.00
63405;BME280;49541;57.840;12.306;2024-01-11T13:34:19;102144.75;;;5.08;100.00
63405;BME280;49541;57.840;12.306;2024-01-11T13:39:19;102161.38;;;4.39;100.00
63405;BME280;49541;57.840;12.306;2024-01-11T13:44:20;102148.47;;;4.06;100.00
63405;BME280;49541;57.840;12.306;2024-01-11T13:49:20;102139.31;;;4.17;100.00
63405;BME280;49541;57.840;12.306;2024-01-11T13:54:22;102142.53;;;4.00;100.00
63405;BME280;49541;57.840;12.306;2024-01-11T13:59:22;102158.75;;;3.62;100.00
63405;BME280;49541;57.840;12.306;2024-01-11T14:04:23;102164.19;;;3.30;100.00
63405;BME280;49541;57.840;12.306;2024-01-11T14:09:23;102145.75;;;3.30;100.00
63405;BME280;49541;57.840;12.306;2024-01-11T14:14:24;102157.91;;;3.87;100.00
63405;BME280;49541;57.840;12.306;2024-01-11T14:19:24;102156.19;;;3.04;100.00
63405;BME280;49541;57.840;12.306;2024-01-11T14:24:25;102158.66;;;3.09;100.00
63405;BME280;49541;57.840;12.306;2024-01-11T14:29:25;102163.81;;;2.84;100.00
63405;BME280;49541;57.840;12.306;2024-01-11T14:34:25;102168.00;;;2.60;100.00
63405;BME280;49541;57.840;12.306;2024-01-11T14:39:26;102159.06;;;2.65;100.00
63405;BME280;49541;57.840;12.306;2024-01-11T14:44:26;102155.84;;;2.85;100.00
63405;BME280;49541;57.840;12.306;2024-01-11T14:49:26;102165.72;;;2.48;100.00
63405;BME280;49541;57.840;12.306;2024-01-11T14:54:28;102164.00;;;2.46;100.00
63405;BME280;49541;57.840;12.306;2024-01-11T14:59:28;102161.88;;;2.28;100.00
63405;BME280;49541;57.840;12.306;2024-01-11T15:04:29;102178.53;;;2.27;100.00
63405;BME280;49541;57.840;12.306;2024-01-11T15:09:29;102172.50;;;1.89;100.00
63405;BME280;49541;57.840;12.306;2024-01-11T15:14:29;102181.97;;;1.96;100.00
63405;BME280;49541;57.840;12.306;2024-01-11T15:19:29;102184.75;;;1.90;100.00
63405;BME280;49541;57.840;12.306;2024-01-11T15:24:30;102197.84;;;1.56;100.00
63405;BME280;49541;57.840;12.306;2024-01-11T15:29:32;102193.66;;;1.49;100.00
63405;BME280;49541;57.840;12.306;2024-01-11T15:34:33;102196.34;;;1.44;100.00
63405;BME280;49541;57.840;12.306;2024-01-11T15:39:33;102204.25;;;1.44;100.00
63405;BME280;49541;57.840;12.306;2024-01-11T15:44:35;102214.22;;;1.30;100.00
63405;BME280;49541;57.840;12.306;2024-01-11T15:49:38;102205.34;;;0.95;100.00
63405;BME280;49541;57.840;12.306;2024-01-11T15:54:38;102199.47;;;0.82;100.00
63405;BME280;49541;57.840;12.306;2024-01-11T15:59:38;102213.66;;;0.73;100.00
63405;BME280;49541;57.840;12.306;2024-01-11T16:04:39;102223.72;;;0.48;100.00
63405;BME280;49541;57.840;12.306;2024-01-11T16:09:42;102232.06;;;0.22;100.00
63405;BME280;49541;57.840;12.306;2024-01-11T16:14:44;102230.19;;;0.30;100.00
63405;BME280;49541;57.840;12.306;2024-01-11T16:19:45;102244.81;;;0.40;100.00
63405;BME280;49541;57.840;12.306;2024-01-11T16:24:46;102237.25;;;0.24;100.00
63405;BME280;49541;57.840;12.306;2024-01-11T16:29:46;102225.16;;;0.18;100.00
63405;BME280;49541;57.840;12.306;2024-01-11T16:34:46;102229.38;;;0.27;100.00
63405;BME280;49541;57.840;12.306;2024-01-11T16:39:47;102229.34;;;0.28;100.00
63405;BME280;49541;57.840;12.306;2024-01-11T16:44:48;102222.91;;;-0.05;100.00
63405;BME280;49541;57.840;12.306;2024-01-11T16:49:49;102230.13;;;-0.19;100.00
63405;BME280;49541;57.840;12.306;2024-01-11T16:54:50;102236.28;;;-0.22;100.00
63405;BME280;49541;57.840;12.306;2024-01-11T16:59:50;102230.66;;;0.03;100.00
63405;BME280;49541;57.840;12.306;2024-01-11T17:04:50;102231.22;;;0.22;100.00
63405;BME280;49541;57.840;12.306;2024-01-11T17:09:51;102241.22;;;-0.04;100.00
63405;BME280;49541;57.840;12.306;2024-01-11T17:14:51;102239.78;;;-0.23;100.00
63405;BME280;49541;57.840;12.306;2024-01-11T17:19:51;102225.66;;;-0.69;100.00
63405;BME280;49541;57.840;12.306;2024-01-11T17:24:51;102223.59;;;-1.12;100.00
63405;BME280;49541;57.840;12.306;2024-01-11T17:29:52;102213.06;;;-1.07;100.00
63405;BME280;49541;57.840;12.306;2024-01-11T17:34:52;102229.47;;;-1.72;100.00
63405;BME280;49541;57.840;12.306;2024-01-11T17:39:52;102238.69;;;-1.37;100.00
63405;BME280;49541;57.840;12.306;2024-01-11T17:44:53;102230.16;;;-1.54;100.00
63405;BME280;49541;57.840;12.306;2024-01-11T17:49:54;102230.94;;;-1.46;100.00
63405;BME280;49541;57.840;12.306;2024-01-11T17:54:55;102234.06;;;-2.00;100.00
63405;BME280;49541;57.840;12.306;2024-01-11T17:59:55;102235.00;;;-2.12;100.00
63405;BME280;49541;57.840;12.306;2024-01-11T18:04:56;102236.50;;;-1.83;100.00
63405;BME280;49541;57.840;12.306;2024-01-11T18:09:56;102238.78;;;-1.49;100.00
63405;BME280;49541;57.840;12.306;2024-01-11T18:14:57;102227.38;;;-1.42;100.00
63405;BME280;49541;57.840;12.306;2024-01-11T18:19:57;102213.72;;;-0.91;100.00
63405;BME280;49541;57.840;12.306;2024-01-11T18:24:57;102219.44;;;-0.63;100.00
63405;BME280;49541;57.840;12.306;2024-01-11T18:29:58;102239.94;;;-0.97;100.00
63405;BME280;49541;57.840;12.306;2024-01-11T18:34:58;102230.59;;;-1.14;100.00
63405;BME280;49541;57.840;12.306;2024-01-11T18:39:58;102226.78;;;-0.90;100.00
63405;BME280;49541;57.840;12.306;2024-01-11T18:45:00;102219.41;;;-1.28;100.00
63405;BME280;49541;57.840;12.306;2024-01-11T18:50:01;102232.34;;;-1.16;100.00
63405;BME280;49541;57.840;12.306;2024-01-11T18:55:02;102223.53;;;-1.09;100.00
63405;BME280;49541;57.840;12.306;2024-01-11T19:00:03;102229.19;;;-1.44;100.00
63405;BME280;49541;57.840;12.306;2024-01-11T19:05:03;102223.72;;;-1.26;100.00
63405;BME280;49541;57.840;12.306;2024-01-11T19:10:04;102216.97;;;-1.45;100.00
63405;BME280;49541;57.840;12.306;2024-01-11T19:15:07;102215.03;;;-1.28;100.00
63405;BME280;49541;57.840;12.306;2024-01-11T19:20:07;102203.72;;;-1.27;100.00
63405;BME280;49541;57.840;12.306;2024-01-11T19:25:07;102191.94;;;-0.92;100.00
63405;BME280;49541;57.840;12.306;2024-01-11T19:30:08;102208.19;;;-1.38;100.00
63405;BME280;49541;57.840;12.306;2024-01-11T19:35:08;102212.00;;;-0.92;100.00
63405;BME280;49541;57.840;12.306;2024-01-11T19:40:10;102204.72;;;-0.72;100.00
63405;BME280;49541;57.840;12.306;2024-01-11T19:45:10;102199.94;;;-1.06;100.00
63405;BME280;49541;57.840;12.306;2024-01-11T19:50:11;102207.06;;;-1.17;100.00
63405;BME280;49541;57.840;12.306;2024-01-11T19:55:11;102185.16;;;-1.05;100.00
63405;BME280;49541;57.840;12.306;2024-01-11T20:00:12;102175.16;;;-0.77;100.00
63405;BME280;49541;57.840;12.306;2024-01-11T20:05:14;102169.47;;;-1.05;100.00
63405;BME280;49541;57.840;12.306;2024-01-11T20:10:14;102167.84;;;-1.15;100.00
63405;BME280;49541;57.840;12.306;2024-01-11T20:15:14;102168.44;;;-1.66;100.00
63405;BME280;49541;57.840;12.306;2024-01-11T20:20:14;102169.25;;;-2.55;100.00
63405;BME280;49541;57.840;12.306;2024-01-11T20:25:15;102183.22;;;-2.67;100.00
63405;BME280;49541;57.840;12.306;2024-01-11T20:30:15;102179.69;;;-2.58;100.00
63405;BME280;49541;57.840;12.306;2024-01-11T20:35:15;102186.13;;;-3.22;100.00
63405;BME280;49541;57.840;12.306;2024-01-11T20:40:16;102175.66;;;-3.15;100.00
63405;BME280;49541;57.840;12.306;2024-01-11T20:45:17;102181.63;;;-2.93;100.00
63405;BME280;49541;57.840;12.306;2024-01-11T20:50:17;102184.59;;;-2.17;100.00
63405;BME280;49541;57.840;12.306;2024-01-11T20:55:17;102179.13;;;-1.89;100.00
63405;BME280;49541;57.840;12.306;2024-01-11T21:00:19;102160.88;;;-1.94;100.00
63405;BME280;49541;57.840;12.306;2024-01-11T21:05:19;102168.13;;;-2.25;100.00
63405;BME280;49541;57.840;12.306;2024-01-11T21:10:19;102161.16;;;-2.26;100.00
63405;BME280;49541;57.840;12.306;2024-01-11T21:15:20;102156.97;;;-2.41;100.00
63405;BME280;49541;57.840;12.306;2024-01-11T21:20:21;102156.22;;;-2.60;100.00
63405;BME280;49541;57.840;12.306;2024-01-11T21:25:24;102146.22;;;-3.38;100.00
63405;BME280;49541;57.840;12.306;2024-01-11T21:30:25;102152.25;;;-3.22;100.00
63405;BME280;49541;57.840;12.306;2024-01-11T21:35:26;102152.34;;;-3.47;100.00
63405;BME280;49541;57.840;12.306;2024-01-11T21:40:26;102150.69;;;-3.69;100.00
63405;BME280;49541;57.840;12.306;2024-01-11T21:45:26;102149.06;;;-4.54;100.00
63405;BME280;49541;57.840;12.306;2024-01-11T21:50:27;102138.63;;;-4.72;100.00
63405;BME280;49541;57.840;12.306;2024-01-11T21:55:30;102137.75;;;-4.65;100.00
63405;BME280;49541;57.840;12.306;2024-01-11T22:00:30;102140.34;;;-4.74;100.00
63405;BME280;49541;57.840;12.306;2024-01-11T22:05:31;102136.00;;;-4.80;100.00
63405;BME280;49541;57.840;12.306;2024-01-11T22:10:34;102129.09;;;-4.55;100.00
63405;BME280;49541;57.840;12.306;2024-01-11T22:15:34;102116.97;;;-4.23;100.00
63405;BME280;49541;57.840;12.306;2024-01-11T22:20:34;102098.75;;;-4.19;100.00
63405;BME280;49541;57.840;12.306;2024-01-11T22:25:35;102116.97;;;-4.49;100.00
63405;BME280;49541;57.840;12.306;2024-01-11T22:30:35;102113.50;;;-4.38;100.00
63405;BME280;49541;57.840;12.306;2024-01-11T22:35:36;102124.72;;;-4.00;100.00
63405;BME280;49541;57.840;12.306;2024-01-11T22:40:36;102114.34;;;-4.22;100.00
63405;BME280;49541;57.840;12.306;2024-01-11T22:45:37;102111.75;;;-4.43;100.00
63405;BME280;49541;57.840;12.306;2024-01-11T22:50:38;102108.28;;;-4.38;100.00
63405;BME280;49541;57.840;12.306;2024-01-11T22:55:39;102097.03;;;-4.78;100.00
63405;BME280;49541;57.840;12.306;2024-01-11T23:00:40;102089.22;;;-4.98;100.00
63405;BME280;49541;57.840;12.306;2024-01-11T23:05:40;102077.84;;;-5.39;100.00
63405;BME280;49541;57.840;12.306;2024-01-11T23:10:40;102074.38;;;-5.41;100.00
63405;BME280;49541;57.840;12.306;2024-01-11T23:15:40;102077.91;;;-5.20;100.00
63405;BME280;49541;57.840;12.306;2024-01-11T23:20:42;102087.41;;;-5.30;100.00
63405;BME280;49541;57.840;12.306;2024-01-11T23:25:42;102077.84;;;-5.45;100.00
63405;BME280;49541;57.840;12.306;2024-01-11T23:30:43;102069.16;;;-5.56;100.00
63405;BME280;49541;57.840;12.306;2024-01-11T23:35:43;102065.66;;;-5.64;100.00
63405;BME280;49541;57.840;12.306;2024-01-11T23:40:44;102074.34;;;-5.58;100.00
63405;BME280;49541;57.840;12.306;2024-01-11T23:45:44;102051.91;;;-5.42;100.00
63405;BME280;49541;57.840;12.306;2024-01-11T23:50:44;102044.97;;;-5.40;100.00
63405;BME280;49541;57.840;12.306;2024-01-11T23:55:45;102030.28;;;-4.56;100.00
